sensor_id;sensor_type;location;lat;lon;timestamp;pressure;altitude;pressure_sealevel;temperature;humidity
78170;BME280;67412;49.892;14.490;2023-08-06T00:00:47;96363.00;;;13.71;100.00
78170;BME280;67412;49.892;14.490;2023-08-06T00:03:12;96357.91;;;13.70;100.00
78170;BME280;67412;49.892;14.490;2023-08-06T00:05:41;96366.44;;;13.72;100.00
78170;BME280;67412;49.892;14.490;2023-08-06T00:08:07;96366.44;;;13.72;100.00
78170;BME280;67412;49.892;14.490;2023-08-06T00:10:32;96358.75;;;13.70;100.00
78170;BME280;67412;49.892;14.490;2023-08-06T00:12:57;96352.75;;;13.70;100.00
78170;BME280;67412;49.892;14.490;2023-08-06T00:15:22;96347.72;;;13.67;100.00
78170;BME280;67412;49.892;14.490;2023-08-06T00:17:48;96350.09;;;13.71;100.00
78170;BME280;67412;49.892;14.490;2023-08-06T00:20:13;96347.66;;;13.68;100.00
78170;BME280;67412;49.892;14.490;2023-08-06T00:22:38;96342.41;;;13.70;100.00
78170;BME280;67412;49.892;14.490;2023-08-06T00:25:05;96342.41;;;13.70;100.00
78170;BME280;67412;49.892;14.490;2023-08-06T00:27:30;96334.66;;;13.70;100.00
78170;BME280;67412;49.892;14.490;2023-08-06T00:29:57;96329.50;;;13.70;100.00
78170;BME280;67412;49.892;14.490;2023-08-06T00:32:22;96329.50;;;13.70;100.00
78170;BME280;67412;49.892;14.490;2023-08-06T00:34:48;96315.84;;;13.68;100.00
78170;BME280;67412;49.892;14.490;2023-08-06T00:37:15;96327.13;;;13.65;100.00
78170;BME280;67412;49.892;14.490;2023-08-06T00:39:42;96331.34;;;13.68;100.00
78170;BME280;67412;49.892;14.490;2023-08-06T00:42:07;96339.19;;;13.65;100.00
78170;BME280;67412;49.892;14.490;2023-08-06T00:44:32;96334.84;;;13.65;100.00
78170;BME280;67412;49.892;14.490;2023-08-06T00:46:58;96327.06;;;13.67;100.00
78170;BME280;67412;49.892;14.490;2023-08-06T00:49:24;96328.03;;;13.64;100.00
78170;BME280;67412;49.892;14.490;2023-08-06T00:51:49;96314.28;;;13.64;100.00
78170;BME280;67412;49.892;14.490;2023-08-06T00:54:15;96307.44;;;13.63;100.00
78170;BME280;67412;49.892;14.490;2023-08-06T00:56:42;96301.53;;;13.61;100.00
78170;BME280;67412;49.892;14.490;2023-08-06T00:59:07;96306.41;;;13.67;100.00
78170;BME280;67412;49.892;14.490;2023-08-06T01:01:34;96300.47;;;13.65;100.00
78170;BME280;67412;49.892;14.490;2023-08-06T01:04:00;96297.84;;;13.66;100.00
78170;BME280;67412;49.892;14.490;2023-08-06T01:06:41;96290.94;;;13.67;100.00
78170;BME280;67412;49.892;14.490;2023-08-06T01:09:27;96287.66;;;13.63;100.00
78170;BME280;67412;49.892;14.490;2023-08-06T01:16:58;96289.38;;;13.63;100.00
78170;BME280;67412;49.892;14.490;2023-08-06T01:19:24;96288.41;;;13.65;100.00
78170;BME280;67412;49.892;14.490;2023-08-06T01:21:49;96293.56;;;13.65;100.00
78170;BME280;67412;49.892;14.490;2023-08-06T01:24:15;96288.50;;;13.64;100.00
78170;BME280;67412;49.892;14.490;2023-08-06T01:26:53;96286.66;;;13.66;100.00
78170;BME280;67412;49.892;14.490;2023-08-06T01:29:29;96288.34;;;13.67;100.00
78170;BME280;67412;49.892;14.490;2023-08-06T01:31:57;96281.38;;;13.69;100.00
78170;BME280;67412;49.892;14.490;2023-08-06T01:34:24;96281.44;;;13.67;100.00
78170;BME280;67412;49.892;14.490;2023-08-06T01:36:51;96288.50;;;13.64;100.00
78170;BME280;67412;49.892;14.490;2023-08-06T01:39:17;96278.16;;;13.64;100.00
78170;BME280;67412;49.892;14.490;2023-08-06T01:41:46;96277.31;;;13.63;100.00
78170;BME280;67412;49.892;14.490;2023-08-06T01:44:11;96279.97;;;13.62;100.00
78170;BME280;67412;49.892;14.490;2023-08-06T01:46:36;96285.13;;;13.62;100.00
78170;BME280;67412;49.892;14.490;2023-08-06T01:49:02;96286.81;;;13.63;100.00
78170;BME280;67412;49.892;14.490;2023-08-06T01:51:27;96281.78;;;13.60;100.00
78170;BME280;67412;49.892;14.490;2023-08-06T01:53:52;96277.38;;;13.62;100.00
78170;BME280;67412;49.892;14.490;2023-08-06T01:56:18;96281.97;;;13.55;100.00
78170;BME280;67412;49.892;14.490;2023-08-06T01:58:44;96281.00;;;13.57;100.00
78170;BME280;67412;49.892;14.490;2023-08-06T02:01:09;96288.63;;;13.61;100.00
78170;BME280;67412;49.892;14.490;2023-08-06T02:03:34;96281.78;;;13.60;100.00
78170;BME280;67412;49.892;14.490;2023-08-06T02:06:00;96274.09;;;13.58;100.00
78170;BME280;67412;49.892;14.490;2023-08-06T02:08:25;96273.19;;;13.59;100.00
78170;BME280;67412;49.892;14.490;2023-08-06T02:10:52;96268.88;;;13.60;100.00
78170;BME280;67412;49.892;14.490;2023-08-06T02:13:17;96271.38;;;13.61;100.00
78170;BME280;67412;49.892;14.490;2023-08-06T02:15:43;96269.78;;;13.59;100.00
78170;BME280;67412;49.892;14.490;2023-08-06T02:18:09;96275.72;;;13.61;100.00
78170;BME280;67412;49.892;14.490;2023-08-06T02:20:34;96275.59;;;13.64;100.00
78170;BME280;67412;49.892;14.490;2023-08-06T02:22:59;96277.38;;;13.62;100.00
78170;BME280;67412;49.892;14.490;2023-08-06T02:25:25;96285.97;;;13.62;100.00
78170;BME280;67412;49.892;14.490;2023-08-06T02:27:50;96280.88;;;13.61;100.00
78170;BME280;67412;49.892;14.490;2023-08-06T02:30:15;96269.72;;;13.60;100.00
78170;BME280;67412;49.892;14.490;2023-08-06T02:32:41;96264.88;;;13.52;100.00
78170;BME280;67412;49.892;14.490;2023-08-06T02:35:06;96266.66;;;13.50;100.00
78170;BME280;67412;49.892;14.490;2023-08-06T02:37:33;96266.66;;;13.50;100.00
78170;BME280;67412;49.892;14.490;2023-08-06T02:39:59;96254.63;;;13.51;100.00
78170;BME280;67412;49.892;14.490;2023-08-06T02:42:24;96252.03;;;13.51;100.00
78170;BME280;67412;49.892;14.490;2023-08-06T02:44:52;96253.78;;;13.50;100.00
78170;BME280;67412;49.892;14.490;2023-08-06T02:47:17;96250.44;;;13.48;100.00
78170;BME280;67412;49.892;14.490;2023-08-06T02:49:43;96247.00;;;13.48;100.00
78170;BME280;67412;49.892;14.490;2023-08-06T02:52:08;96254.63;;;13.51;100.00
78170;BME280;67412;49.892;14.490;2023-08-06T02:54:34;96253.63;;;13.53;100.00
78170;BME280;67412;49.892;14.490;2023-08-06T02:56:59;96245.97;;;13.52;100.00
78170;BME280;67412;49.892;14.490;2023-08-06T02:59:24;96246.88;;;13.51;100.00
78170;BME280;67412;49.892;14.490;2023-08-06T03:01:49;96237.59;;;13.47;100.00
78170;BME280;67412;49.892;14.490;2023-08-06T03:04:15;96239.28;;;13.48;100.00
78170;BME280;67412;49.892;14.490;2023-08-06T03:06:40;96231.59;;;13.46;100.00
78170;BME280;67412;49.892;14.490;2023-08-06T03:09:05;96226.44;;;13.46;100.00
78170;BME280;67412;49.892;14.490;2023-08-06T03:11:31;96221.34;;;13.45;100.00
78170;BME280;67412;49.892;14.490;2023-08-06T03:13:56;96226.38;;;13.48;100.00
78170;BME280;67412;49.892;14.490;2023-08-06T03:16:21;96226.38;;;13.48;100.00
78170;BME280;67412;49.892;14.490;2023-08-06T03:18:47;96208.38;;;13.46;100.00
78170;BME280;67412;49.892;14.490;2023-08-06T03:21:12;96214.56;;;13.42;100.00
78170;BME280;67412;49.892;14.490;2023-08-06T03:23:38;96220.41;;;13.46;100.00
78170;BME280;67412;49.892;14.490;2023-08-06T03:26:03;96212.75;;;13.44;100.00
78170;BME280;67412;49.892;14.490;2023-08-06T03:28:28;96216.31;;;13.42;100.00
78170;BME280;67412;49.892;14.490;2023-08-06T03:31:03;96214.50;;;13.44;100.00
78170;BME280;67412;49.892;14.490;2023-08-06T03:33:29;96214.44;;;13.45;100.00
78170;BME280;67412;49.892;14.490;2023-08-06T03:35:54;96218.69;;;13.46;100.00
78170;BME280;67412;49.892;14.490;2023-08-06T03:38:20;96215.34;;;13.44;100.00
78170;BME280;67412;49.892;14.490;2023-08-06T03:40:48;96210.09;;;13.46;100.00
78170;BME280;67412;49.892;14.490;2023-08-06T03:43:14;96212.13;;;13.39;100.00
78170;BME280;67412;49.892;14.490;2023-08-06T03:45:40;96193.31;;;13.37;100.00
78170;BME280;67412;49.892;14.490;2023-08-06T03:48:05;96200.84;;;13.42;100.00
78170;BME280;67412;49.892;14.490;2023-08-06T03:50:30;96199.06;;;13.42;100.00
78170;BME280;67412;49.892;14.490;2023-08-06T03:52:56;96186.06;;;13.45;100.00
78170;BME280;67412;49.892;14.490;2023-08-06T03:55:21;96197.28;;;13.44;100.00
78170;BME280;67412;49.892;14.490;2023-08-06T03:57:47;96191.44;;;13.41;100.00
78170;BME280;67412;49.892;14.490;2023-08-06T04:00:12;96190.44;;;13.43;100.00
78170;BME280;67412;49.892;14.490;2023-08-06T04:02:38;96188.72;;;13.44;100.00
78170;BME280;67412;49.892;14.490;2023-08-06T04:05:04;96186.19;;;13.42;100.00
78170;BME280;67412;49.892;14.490;2023-08-06T04:07:29;96178.44;;;13.42;100.00
78170;BME280;67412;49.892;14.490;2023-08-06T04:09:57;96175.84;;;13.42;100.00
78170;BME280;67412;49.892;14.490;2023-08-06T04:12:23;96173.09;;;13.47;100.00
78170;BME280;67412;49.892;14.490;2023-08-06T04:14:50;96157.69;;;13.45;100.00
78170;BME280;67412;49.892;14.490;2023-08-06T04:17:16;96166.25;;;13.46;100.00
78170;BME280;67412;49.892;14.490;2023-08-06T04:19:41;96154.97;;;13.48;100.00
78170;BME280;67412;49.892;14.490;2023-08-06T04:22:06;96166.13;;;13.49;100.00
78170;BME280;67412;49.892;14.490;2023-08-06T04:24:32;96163.47;;;13.50;100.00
78170;BME280;67412;49.892;14.490;2023-08-06T04:26:57;96175.59;;;13.48;100.00
78170;BME280;67412;49.892;14.490;2023-08-06T04:29:22;96175.59;;;13.48;100.00
78170;BME280;67412;49.892;14.490;2023-08-06T04:31:48;96167.72;;;13.51;100.00
78170;BME280;67412;49.892;14.490;2023-08-06T04:34:13;96158.16;;;13.53;100.00
78170;BME280;67412;49.892;14.490;2023-08-06T04:36:38;96153.00;;;13.53;100.00
78170;BME280;67412;49.892;14.490;2023-08-06T04:39:04;96147.97;;;13.50;100.00
78170;BME280;67412;49.892;14.490;2023-08-06T04:41:29;96145.41;;;13.50;100.00
78170;BME280;67412;49.892;14.490;2023-08-06T04:43:56;96144.50;;;13.51;100.00
78170;BME280;67412;49.892;14.490;2023-08-06T04:46:21;96142.81;;;13.50;100.00
78170;BME280;67412;49.892;14.490;2023-08-06T04:48:47;96138.59;;;13.49;100.00
78170;BME280;67412;49.892;14.490;2023-08-06T04:51:12;96147.97;;;13.50;100.00
78170;BME280;67412;49.892;14.490;2023-08-06T04:53:38;96142.13;;;13.47;100.00
78170;BME280;67412;49.892;14.490;2023-08-06T04:56:03;96148.97;;;13.48;100.00
78170;BME280;67412;49.892;14.490;2023-08-06T04:58:28;96142.78;;;13.52;100.00
78170;BME280;67412;49.892;14.490;2023-08-06T05:00:54;96144.44;;;13.53;100.00
78170;BME280;67412;49.892;14.490;2023-08-06T05:03:19;96138.59;;;13.49;100.00
78170;BME280;67412;49.892;14.490;2023-08-06T05:05:46;96141.94;;;13.51;100.00
78170;BME280;67412;49.892;14.490;2023-08-06T05:08:15;96140.84;;;13.57;100.00
78170;BME280;67412;49.892;14.490;2023-08-06T05:10:44;96145.06;;;13.58;100.00
78170;BME280;67412;49.892;14.490;2023-08-06T05:13:09;96145.75;;;13.62;100.00
78170;BME280;67412;49.892;14.490;2023-08-06T05:15:35;96144.09;;;13.61;100.00
78170;BME280;67412;49.892;14.490;2023-08-06T05:18:00;96142.34;;;13.61;100.00
78170;BME280;67412;49.892;14.490;2023-08-06T05:20:26;96144.09;;;13.61;100.00
78170;BME280;67412;49.892;14.490;2023-08-06T05:22:51;96146.00;;;13.57;100.00
78170;BME280;67412;49.892;14.490;2023-08-06T05:25:16;96147.03;;;13.53;100.00
78170;BME280;67412;49.892;14.490;2023-08-06T05:27:42;96139.19;;;13.54;100.00
78170;BME280;67412;49.892;14.490;2023-08-06T05:30:08;96141.78;;;13.54;100.00
78170;BME280;67412;49.892;14.490;2023-08-06T05:32:33;96135.88;;;13.52;100.00
78170;BME280;67412;49.892;14.490;2023-08-06T05:34:59;96126.38;;;13.53;100.00
78170;BME280;67412;49.892;14.490;2023-08-06T05:37:24;96124.63;;;13.53;100.00
78170;BME280;67412;49.892;14.490;2023-08-06T05:39:49;96126.31;;;13.54;100.00
78170;BME280;67412;49.892;14.490;2023-08-06T05:42:15;96125.34;;;13.57;100.00
78170;BME280;67412;49.892;14.490;2023-08-06T05:44:41;96123.72;;;13.54;100.00
78170;BME280;67412;49.892;14.490;2023-08-06T05:47:06;96121.69;;;13.61;100.00
78170;BME280;67412;49.892;14.490;2023-08-06T05:49:31;96134.50;;;13.64;100.00
78170;BME280;67412;49.892;14.490;2023-08-06T05:51:57;96135.28;;;13.65;100.00
78170;BME280;67412;49.892;14.490;2023-08-06T05:54:22;96141.38;;;13.64;100.00
78170;BME280;67412;49.892;14.490;2023-08-06T05:56:47;96128.28;;;13.68;100.00
78170;BME280;67412;49.892;14.490;2023-08-06T05:59:13;96126.66;;;13.66;100.00
78170;BME280;67412;49.892;14.490;2023-08-06T06:01:38;96126.81;;;13.63;100.00
78170;BME280;67412;49.892;14.490;2023-08-06T06:04:03;96125.81;;;13.65;100.00
78170;BME280;67412;49.892;14.490;2023-08-06T06:06:29;96119.56;;;13.71;100.00
78170;BME280;67412;49.892;14.490;2023-08-06T06:08:54;96120.53;;;13.68;100.00
78170;BME280;67412;49.892;14.490;2023-08-06T06:11:19;96118.50;;;13.75;100.00
78170;BME280;67412;49.892;14.490;2023-08-06T06:13:49;96122.63;;;13.79;100.00
78170;BME280;67412;49.892;14.490;2023-08-06T06:16:14;96123.13;;;13.87;100.00
78170;BME280;67412;49.892;14.490;2023-08-06T06:18:39;96124.50;;;13.94;100.00
78170;BME280;67412;49.892;14.490;2023-08-06T06:21:05;96118.28;;;13.98;100.00
78170;BME280;67412;49.892;14.490;2023-08-06T06:23:30;96119.66;;;14.05;100.00
78170;BME280;67412;49.892;14.490;2023-08-06T06:25:55;96113.13;;;13.98;100.00
78170;BME280;67412;49.892;14.490;2023-08-06T06:28:21;96111.13;;;14.03;100.00
78170;BME280;67412;49.892;14.490;2023-08-06T06:30:46;96112.53;;;14.10;100.00
78170;BME280;67412;49.892;14.490;2023-08-06T06:33:11;96121.75;;;14.16;100.00
78170;BME280;67412;49.892;14.490;2023-08-06T06:35:37;96113.56;;;14.06;100.00
78170;BME280;67412;49.892;14.490;2023-08-06T06:38:02;96120.22;;;14.12;100.00
78170;BME280;67412;49.892;14.490;2023-08-06T06:40:27;96111.72;;;14.10;100.00
78170;BME280;67412;49.892;14.490;2023-08-06T06:42:53;96119.91;;;14.18;100.00
78170;BME280;67412;49.892;14.490;2023-08-06T06:45:18;96117.25;;;14.19;100.00
78170;BME280;67412;49.892;14.490;2023-08-06T06:47:43;96111.88;;;14.24;100.00
78170;BME280;67412;49.892;14.490;2023-08-06T06:50:09;96111.66;;;14.28;100.00
78170;BME280;67412;49.892;14.490;2023-08-06T06:52:34;96106.88;;;14.21;100.00
78170;BME280;67412;49.892;14.490;2023-08-06T06:55:00;96101.91;;;14.16;100.00
78170;BME280;67412;49.892;14.490;2023-08-06T06:57:25;96112.94;;;14.20;100.00
78170;BME280;67412;49.892;14.490;2023-08-06T06:59:51;96110.56;;;14.15;100.00
78170;BME280;67412;49.892;14.490;2023-08-06T07:02:16;96114.91;;;14.15;100.00
78170;BME280;67412;49.892;14.490;2023-08-06T07:04:42;96102.66;;;14.18;100.00
78170;BME280;67412;49.892;14.490;2023-08-06T07:07:07;96109.22;;;14.25;100.00
78170;BME280;67412;49.892;14.490;2023-08-06T07:09:32;96106.97;;;14.36;100.00
78170;BME280;67412;49.892;14.490;2023-08-06T07:11:57;96117.31;;;14.36;100.00
78170;BME280;67412;49.892;14.490;2023-08-06T07:14:25;96120.69;;;14.38;100.00
78170;BME280;67412;49.892;14.490;2023-08-06T07:16:50;96117.41;;;14.16;100.00
78170;BME280;67412;49.892;14.490;2023-08-06T07:19:15;96116.38;;;14.20;100.00
78170;BME280;67412;49.892;14.490;2023-08-06T07:21:41;96112.72;;;14.24;100.00
78170;BME280;67412;49.892;14.490;2023-08-06T07:24:06;96117.19;;;14.21;100.00
78170;BME280;67412;49.892;14.490;2023-08-06T07:26:31;96107.31;;;14.29;100.00
78170;BME280;67412;49.892;14.490;2023-08-06T07:28:57;96104.41;;;14.36;100.00
78170;BME280;67412;49.892;14.490;2023-08-06T07:31:22;96103.81;;;14.48;100.00
78170;BME280;67412;49.892;14.490;2023-08-06T07:33:47;96105.38;;;14.51;100.00
78170;BME280;67412;49.892;14.490;2023-08-06T07:36:14;96109.44;;;14.57;100.00
78170;BME280;67412;49.892;14.490;2023-08-06T07:38:40;96108.81;;;14.51;100.00
78170;BME280;67412;49.892;14.490;2023-08-06T07:41:05;96105.53;;;14.48;100.00
78170;BME280;67412;49.892;14.490;2023-08-06T07:43:31;96102.00;;;14.50;100.00
78170;BME280;67412;49.892;14.490;2023-08-06T07:45:59;96097.50;;;14.54;100.00
78170;BME280;67412;49.892;14.490;2023-08-06T07:48:25;96100.31;;;14.49;100.00
78170;BME280;67412;49.892;14.490;2023-08-06T07:50:52;96102.69;;;14.54;100.00
78170;BME280;67412;49.892;14.490;2023-08-06T07:53:22;96100.94;;;14.55;100.00
78170;BME280;67412;49.892;14.490;2023-08-06T07:55:50;96092.19;;;14.57;100.00
78170;BME280;67412;49.892;14.490;2023-08-06T07:58:16;96091.78;;;14.47;100.00
78170;BME280;67412;49.892;14.490;2023-08-06T08:00:41;96090.13;;;14.46;100.00
78170;BME280;67412;49.892;14.490;2023-08-06T08:03:09;96094.16;;;14.52;100.00
78170;BME280;67412;49.892;14.490;2023-08-06T08:05:34;96099.94;;;14.57;100.00
78170;BME280;67412;49.892;14.490;2023-08-06T08:08:00;96095.84;;;14.53;100.00
78170;BME280;67412;49.892;14.490;2023-08-06T08:10:25;96100.47;;;14.46;100.00
78170;BME280;67412;49.892;14.490;2023-08-06T08:12:51;96086.25;;;14.55;100.00
78170;BME280;67412;49.892;14.490;2023-08-06T08:15:16;96087.31;;;14.51;100.00
78170;BME280;67412;49.892;14.490;2023-08-06T08:17:41;96088.47;;;14.45;100.00
78170;BME280;67412;49.892;14.490;2023-08-06T08:20:07;96086.03;;;14.42;100.00
78170;BME280;67412;49.892;14.490;2023-08-06T08:22:32;96087.78;;;14.42;100.00
78170;BME280;67412;49.892;14.490;2023-08-06T08:24:57;96090.41;;;14.40;100.00
78170;BME280;67412;49.892;14.490;2023-08-06T08:27:23;96096.97;;;14.47;100.00
78170;BME280;67412;49.892;14.490;2023-08-06T08:29:48;96095.31;;;14.46;100.00
78170;BME280;67412;49.892;14.490;2023-08-06T08:32:13;96094.31;;;14.49;100.00
78170;BME280;67412;49.892;14.490;2023-08-06T08:34:39;96091.78;;;14.47;100.00
78170;BME280;67412;49.892;14.490;2023-08-06T08:37:04;96093.31;;;14.51;100.00
78170;BME280;67412;49.892;14.490;2023-08-06T08:39:31;96092.19;;;14.57;100.00
78170;BME280;67412;49.892;14.490;2023-08-06T08:41:56;96088.22;;;14.67;100.00
78170;BME280;67412;49.892;14.490;2023-08-06T08:44:21;96085.03;;;14.62;100.00
78170;BME280;67412;49.892;14.490;2023-08-06T08:46:47;96080.69;;;14.63;100.00
78170;BME280;67412;49.892;14.490;2023-08-06T08:49:13;96076.81;;;14.71;100.00
78170;BME280;67412;49.892;14.490;2023-08-06T08:51:38;96067.94;;;14.77;100.00
78170;BME280;67412;49.892;14.490;2023-08-06T08:54:04;96069.66;;;14.93;100.00
78170;BME280;67412;49.892;14.490;2023-08-06T08:56:29;96059.63;;;14.87;100.00
78170;BME280;67412;49.892;14.490;2023-08-06T08:58:55;96061.22;;;14.90;100.00
78170;BME280;67412;49.892;14.490;2023-08-06T09:01:21;96065.81;;;15.00;100.00
78170;BME280;67412;49.892;14.490;2023-08-06T09:03:47;96057.56;;;14.94;100.00
78170;BME280;67412;49.892;14.490;2023-08-06T09:06:13;96061.50;;;15.01;100.00
78170;BME280;67412;49.892;14.490;2023-08-06T09:08:46;96059.94;;;15.14;100.00
78170;BME280;67412;49.892;14.490;2023-08-06T09:11:12;96055.69;;;15.13;100.00
78170;BME280;67412;49.892;14.490;2023-08-06T09:13:38;96060.28;;;15.24;100.00
78170;BME280;67412;49.892;14.490;2023-08-06T09:16:04;96059.63;;;15.20;100.00
78170;BME280;67412;49.892;14.490;2023-08-06T09:18:30;96059.19;;;15.12;100.00
78170;BME280;67412;49.892;14.490;2023-08-06T09:20:56;96049.09;;;15.23;100.00
78170;BME280;67412;49.892;14.490;2023-08-06T09:23:27;96060.91;;;15.29;100.00
78170;BME280;67412;49.892;14.490;2023-08-06T09:25:53;96057.31;;;15.31;99.94
78170;BME280;67412;49.892;14.490;2023-08-06T09:28:18;96048.72;;;15.46;100.00
78170;BME280;67412;49.892;14.490;2023-08-06T09:30:47;96058.38;;;15.27;98.68
78170;BME280;67412;49.892;14.490;2023-08-06T09:33:17;96055.28;;;15.21;100.00
78170;BME280;67412;49.892;14.490;2023-08-06T09:35:45;96058.88;;;15.18;100.00
78170;BME280;67412;49.892;14.490;2023-08-06T09:38:10;96052.81;;;15.02;100.00
78170;BME280;67412;49.892;14.490;2023-08-06T09:40:37;96058.94;;;14.84;100.00
78170;BME280;67412;49.892;14.490;2023-08-06T09:43:03;96060.63;;;14.68;100.00
78170;BME280;67412;49.892;14.490;2023-08-06T09:45:34;96055.31;;;14.71;100.00
78170;BME280;67412;49.892;14.490;2023-08-06T09:48:03;96044.66;;;14.77;100.00
78170;BME280;67412;49.892;14.490;2023-08-06T09:50:30;96052.41;;;14.77;100.00
78170;BME280;67412;49.892;14.490;2023-08-06T09:53:02;96054.72;;;14.66;100.00
78170;BME280;67412;49.892;14.490;2023-08-06T09:55:28;96051.28;;;14.48;100.00
78170;BME280;67412;49.892;14.490;2023-08-06T09:57:54;96045.16;;;14.50;100.00
78170;BME280;67412;49.892;14.490;2023-08-06T10:00:20;96045.66;;;14.57;100.00
78170;BME280;67412;49.892;14.490;2023-08-06T10:02:46;96046.97;;;14.66;100.00
78170;BME280;67412;49.892;14.490;2023-08-06T10:05:12;96034.47;;;14.74;100.00
78170;BME280;67412;49.892;14.490;2023-08-06T10:07:37;96037.19;;;14.71;100.00
78170;BME280;67412;49.892;14.490;2023-08-06T10:10:06;96034.31;;;14.77;100.00
78170;BME280;67412;49.892;14.490;2023-08-06T10:12:36;96031.84;;;14.91;100.00
78170;BME280;67412;49.892;14.490;2023-08-06T10:15:05;96025.50;;;14.96;100.00
78170;BME280;67412;49.892;14.490;2023-08-06T10:17:34;96028.97;;;15.13;99.67
78170;BME280;67412;49.892;14.490;2023-08-06T10:20:04;96028.16;;;15.28;99.91
78170;BME280;67412;49.892;14.490;2023-08-06T10:22:32;96023.56;;;15.17;98.77
78170;BME280;67412;49.892;14.490;2023-08-06T10:24:59;96025.56;;;15.12;98.43
78170;BME280;67412;49.892;14.490;2023-08-06T10:27:53;96017.50;;;15.18;100.00
78170;BME280;67412;49.892;14.490;2023-08-06T10:35:37;96033.59;;;15.23;99.87
78170;BME280;67412;49.892;14.490;2023-08-06T10:38:18;96019.06;;;15.21;99.13
78170;BME280;67412;49.892;14.490;2023-08-06T10:41:01;96021.41;;;15.25;99.95
78170;BME280;67412;49.892;14.490;2023-08-06T10:43:30;96022.41;;;15.23;99.58
78170;BME280;67412;49.892;14.490;2023-08-06T10:45:58;96021.25;;;15.28;100.00
78170;BME280;67412;49.892;14.490;2023-08-06T10:48:37;96022.31;;;15.24;100.00
78170;BME280;67412;49.892;14.490;2023-08-06T10:51:06;96018.25;;;15.36;100.00
78170;BME280;67412;49.892;14.490;2023-08-06T10:53:32;96015.00;;;15.32;100.00
78170;BME280;67412;49.892;14.490;2023-08-06T10:55:58;96010.47;;;15.20;100.00
78170;BME280;67412;49.892;14.490;2023-08-06T10:58:23;96016.31;;;15.24;100.00
78170;BME280;67412;49.892;14.490;2023-08-06T11:00:48;96012.88;;;15.23;100.00
78170;BME280;67412;49.892;14.490;2023-08-06T11:03:14;96007.53;;;15.26;100.00
78170;BME280;67412;49.892;14.490;2023-08-06T11:05:40;96013.72;;;15.24;100.00
78170;BME280;67412;49.892;14.490;2023-08-06T11:08:05;96009.88;;;15.15;100.00
78170;BME280;67412;49.892;14.490;2023-08-06T11:10:34;96008.78;;;15.19;99.78
78170;BME280;67412;49.892;14.490;2023-08-06T11:13:03;96017.41;;;15.35;100.00
78170;BME280;67412;49.892;14.490;2023-08-06T11:15:30;96018.06;;;15.39;99.43
78170;BME280;67412;49.892;14.490;2023-08-06T11:17:55;96027.34;;;15.43;99.36
78170;BME280;67412;49.892;14.490;2023-08-06T11:20:20;96021.94;;;15.47;99.76
78170;BME280;67412;49.892;14.490;2023-08-06T11:22:48;96015.91;;;15.47;98.96
78170;BME280;67412;49.892;14.490;2023-08-06T11:25:13;96017.16;;;15.40;100.00
78170;BME280;67412;49.892;14.490;2023-08-06T11:27:39;96021.06;;;15.31;100.00
78170;BME280;67412;49.892;14.490;2023-08-06T11:30:05;96021.81;;;15.33;99.66
78170;BME280;67412;49.892;14.490;2023-08-06T11:32:30;96018.66;;;15.28;100.00
78170;BME280;67412;49.892;14.490;2023-08-06T11:34:56;96020.41;;;15.28;100.00
78170;BME280;67412;49.892;14.490;2023-08-06T11:37:23;96026.91;;;15.35;100.00
78170;BME280;67412;49.892;14.490;2023-08-06T11:39:51;96022.00;;;15.46;100.00
78170;BME280;67412;49.892;14.490;2023-08-06T11:42:17;96011.50;;;15.49;98.85
78170;BME280;67412;49.892;14.490;2023-08-06T11:44:43;96014.03;;;15.66;99.15
78170;BME280;67412;49.892;14.490;2023-08-06T11:47:14;96014.44;;;15.59;97.51
78170;BME280;67412;49.892;14.490;2023-08-06T11:49:40;96010.91;;;15.60;95.56
78170;BME280;67412;49.892;14.490;2023-08-06T11:52:19;96010.53;;;15.52;95.95
78170;BME280;67412;49.892;14.490;2023-08-06T11:55:06;96019.88;;;15.54;95.33
78170;BME280;67412;49.892;14.490;2023-08-06T11:57:33;96016.53;;;15.52;95.48
78170;BME280;67412;49.892;14.490;2023-08-06T12:00:04;96023.00;;;15.43;95.97
78170;BME280;67412;49.892;14.490;2023-08-06T12:02:31;96032.16;;;15.51;95.60
78170;BME280;67412;49.892;14.490;2023-08-06T12:05:12;96020.44;;;15.43;94.80
78170;BME280;67412;49.892;14.490;2023-08-06T12:07:40;96020.28;;;15.62;94.77
78170;BME280;67412;49.892;14.490;2023-08-06T12:10:07;96016.03;;;15.77;94.32
78170;BME280;67412;49.892;14.490;2023-08-06T12:12:33;96019.53;;;15.76;94.70
78170;BME280;67412;49.892;14.490;2023-08-06T12:14:59;96013.84;;;15.85;94.58
78170;BME280;67412;49.892;14.490;2023-08-06T12:17:25;96010.56;;;15.97;95.39
78170;BME280;67412;49.892;14.490;2023-08-06T12:19:50;96015.97;;;16.08;92.92
78170;BME280;67412;49.892;14.490;2023-08-06T12:22:16;96012.41;;;16.25;93.50
78170;BME280;67412;49.892;14.490;2023-08-06T12:24:42;96008.06;;;16.25;93.17
78170;BME280;67412;49.892;14.490;2023-08-06T12:27:08;96003.47;;;16.30;93.96
78170;BME280;67412;49.892;14.490;2023-08-06T12:29:34;96011.28;;;16.44;92.24
78170;BME280;67412;49.892;14.490;2023-08-06T12:31:59;96016.13;;;16.65;91.45
78170;BME280;67412;49.892;14.490;2023-08-06T12:34:24;96006.97;;;16.59;89.24
78170;BME280;67412;49.892;14.490;2023-08-06T12:36:50;96003.69;;;16.56;90.02
78170;BME280;67412;49.892;14.490;2023-08-06T12:39:15;96010.16;;;16.49;89.83
78170;BME280;67412;49.892;14.490;2023-08-06T12:41:41;96000.03;;;16.74;88.98
78170;BME280;67412;49.892;14.490;2023-08-06T12:44:09;96004.22;;;16.76;89.31
78170;BME280;67412;49.892;14.490;2023-08-06T12:46:34;95997.91;;;16.80;88.41